UAL61 YMML-KSFO
Flight info
| Callsign | UAL61 |
|---|---|
| Flight time | N/A |
| Altitude | 33000 |
| Route | DOSEL Y59 TESAT G595 SOTKI DCT UBLIN A579 VIRAR/N0489F350 A579 TANIL DCT NN B581 WOOBY/N0485F370 DCT 05N160W 10N156W 15N151W/N0477F390 20N146W 25N141W 29N135W 33N130W DCT CINNY PIRAT3 |
| Aircraft | B772/H-SDE2E3FGHIJ5LORVWXY/LB1D1 |
Departure
| Time | N/A |
|---|---|
| Airport | Melbourne Airport (YMML) |
Arrival
| Time | 2026-05-07 17:55 |
|---|---|
| Airport | San Francisco International Airport (KSFO) |
| Time | Latitude | Longitude | Altitude | Speed | Heading |
|---|---|---|---|---|---|
| 2026-05-07 14:42 | 23.11200 | -142.94960 | 39119 ft | 508 kts | 37° |
| 2026-05-07 14:43 | 23.16390 | -142.89710 | 39126 ft | 508 kts | 38° |
| 2026-05-07 14:43 | 23.21532 | -142.84500 | 39129 ft | 507 kts | 38° |
| 2026-05-07 14:44 | 23.26674 | -142.79288 | 39130 ft | 505 kts | 38° |
| 2026-05-07 14:44 | 23.31789 | -142.74095 | 39137 ft | 504 kts | 38° |
| 2026-05-07 14:45 | 23.36894 | -142.68906 | 39132 ft | 501 kts | 38° |
| 2026-05-07 14:45 | 23.42009 | -142.63702 | 39139 ft | 500 kts | 38° |
| 2026-05-07 14:46 | 23.47070 | -142.58548 | 39135 ft | 500 kts | 38° |
| 2026-05-07 14:46 | 23.52118 | -142.53401 | 39139 ft | 500 kts | 38° |
| 2026-05-07 14:47 | 23.57177 | -142.48236 | 39139 ft | 499 kts | 38° |
| 2026-05-07 14:47 | 23.62232 | -142.43071 | 39139 ft | 495 kts | 39° |
| 2026-05-07 14:48 | 23.67263 | -142.37926 | 39147 ft | 495 kts | 39° |
| 2026-05-07 14:48 | 23.72273 | -142.32794 | 39135 ft | 496 kts | 39° |
| 2026-05-07 14:49 | 23.77323 | -142.27617 | 39135 ft | 495 kts | 39° |
| 2026-05-07 14:49 | 23.82307 | -142.22501 | 39137 ft | 494 kts | 39° |
| 2026-05-07 14:50 | 23.87301 | -142.17369 | 39134 ft | 494 kts | 40° |
| 2026-05-07 14:50 | 23.92285 | -142.12242 | 39138 ft | 492 kts | 40° |
| 2026-05-07 14:51 | 23.97271 | -142.07106 | 39140 ft | 492 kts | 40° |
| 2026-05-07 14:51 | 24.02252 | -142.01971 | 39138 ft | 491 kts | 40° |
| 2026-05-07 14:52 | 24.07224 | -141.96840 | 39137 ft | 493 kts | 40° |
| 2026-05-07 14:52 | 24.12182 | -141.91716 | 39149 ft | 492 kts | 40° |
| 2026-05-07 14:53 | 24.17173 | -141.86552 | 39147 ft | 489 kts | 40° |
| 2026-05-07 14:53 | 24.22085 | -141.81467 | 39151 ft | 491 kts | 40° |
| 2026-05-07 14:54 | 24.27037 | -141.76331 | 39144 ft | 487 kts | 40° |
| 2026-05-07 14:54 | 24.31929 | -141.71254 | 39153 ft | 486 kts | 40° |
| 2026-05-07 14:55 | 24.36848 | -141.66141 | 39154 ft | 485 kts | 40° |
| 2026-05-07 14:55 | 24.41708 | -141.61085 | 39160 ft | 483 kts | 40° |
| 2026-05-07 14:56 | 24.46591 | -141.56001 | 39161 ft | 483 kts | 40° |
| 2026-05-07 14:56 | 24.51473 | -141.50911 | 39158 ft | 484 kts | 40° |
| 2026-05-07 14:57 | 24.56328 | -141.45844 | 39169 ft | 483 kts | 40° |
| 2026-05-07 14:57 | 24.61182 | -141.40771 | 39162 ft | 482 kts | 39° |
| 2026-05-07 14:58 | 24.66014 | -141.35715 | 39163 ft | 480 kts | 39° |
| 2026-05-07 14:58 | 24.70852 | -141.30649 | 39152 ft | 481 kts | 40° |
| 2026-05-07 14:59 | 24.75701 | -141.25565 | 39154 ft | 480 kts | 40° |
| 2026-05-07 14:59 | 24.80333 | -141.20702 | 39157 ft | 479 kts | 40° |
| 2026-05-07 15:00 | 24.85149 | -141.15642 | 39158 ft | 478 kts | 40° |
| 2026-05-07 15:00 | 24.89952 | -141.10588 | 39158 ft | 475 kts | 40° |
| 2026-05-07 15:01 | 24.94701 | -141.05588 | 39159 ft | 476 kts | 40° |
| 2026-05-07 15:01 | 24.99449 | -141.00522 | 39148 ft | 477 kts | 44° |
| 2026-05-07 15:02 | 25.03682 | -140.94788 | 39153 ft | 481 kts | 48° |
| 2026-05-07 15:02 | 25.07795 | -140.89015 | 39159 ft | 482 kts | 48° |
| 2026-05-07 15:03 | 25.11907 | -140.83228 | 39173 ft | 480 kts | 48° |
| 2026-05-07 15:03 | 25.16023 | -140.77423 | 39184 ft | 480 kts | 48° |
| 2026-05-07 15:04 | 25.20136 | -140.71616 | 39188 ft | 480 kts | 48° |
| 2026-05-07 15:04 | 25.24244 | -140.65807 | 39178 ft | 480 kts | 48° |
| 2026-05-07 15:05 | 25.28344 | -140.59999 | 39186 ft | 479 kts | 48° |
| 2026-05-07 15:05 | 25.32416 | -140.54225 | 39188 ft | 479 kts | 48° |
| 2026-05-07 15:06 | 25.36515 | -140.48406 | 39190 ft | 479 kts | 48° |
| 2026-05-07 15:06 | 25.40607 | -140.42589 | 39200 ft | 479 kts | 48° |
| 2026-05-07 15:07 | 25.44668 | -140.36809 | 39179 ft | 478 kts | 49° |
| 2026-05-07 15:07 | 25.48748 | -140.30995 | 39171 ft | 479 kts | 49° |
| 2026-05-07 15:08 | 25.52832 | -140.25166 | 39167 ft | 477 kts | 49° |
| 2026-05-07 15:08 | 25.56885 | -140.19377 | 39164 ft | 477 kts | 49° |
| 2026-05-07 15:09 | 25.60936 | -140.13583 | 39170 ft | 478 kts | 49° |
| 2026-05-07 15:09 | 25.65018 | -140.07736 | 39165 ft | 478 kts | 49° |
| 2026-05-07 15:10 | 25.69067 | -140.01930 | 39178 ft | 478 kts | 49° |
| 2026-05-07 15:10 | 25.73137 | -139.96088 | 39175 ft | 478 kts | 49° |
| 2026-05-07 15:11 | 25.77176 | -139.90280 | 39180 ft | 478 kts | 49° |
| 2026-05-07 15:11 | 25.81218 | -139.84462 | 39192 ft | 477 kts | 49° |
| 2026-05-07 15:12 | 25.85275 | -139.78616 | 39192 ft | 478 kts | 49° |
| 2026-05-07 15:12 | 25.89303 | -139.72804 | 39197 ft | 478 kts | 49° |
| 2026-05-07 15:13 | 25.93361 | -139.66940 | 39198 ft | 478 kts | 49° |
| 2026-05-07 15:13 | 25.97392 | -139.61108 | 39199 ft | 478 kts | 49° |
| 2026-05-07 15:14 | 26.01438 | -139.55249 | 39198 ft | 478 kts | 49° |
| 2026-05-07 15:14 | 26.05469 | -139.49402 | 39199 ft | 477 kts | 49° |
| 2026-05-07 15:15 | 26.09482 | -139.43574 | 39199 ft | 477 kts | 49° |
| 2026-05-07 15:15 | 26.13514 | -139.37714 | 39205 ft | 477 kts | 49° |
| 2026-05-07 15:16 | 26.17525 | -139.31873 | 39199 ft | 476 kts | 49° |
| 2026-05-07 15:16 | 26.21546 | -139.26012 | 39198 ft | 478 kts | 50° |
| 2026-05-07 15:17 | 26.25563 | -139.20148 | 39200 ft | 477 kts | 49° |
| 2026-05-07 15:17 | 26.29598 | -139.14250 | 39197 ft | 477 kts | 50° |
| 2026-05-07 15:18 | 26.33609 | -139.08380 | 39195 ft | 476 kts | 50° |
| 2026-05-07 15:18 | 26.37604 | -139.02527 | 39200 ft | 475 kts | 50° |
| 2026-05-07 15:19 | 26.41598 | -138.96668 | 39201 ft | 476 kts | 50° |
| 2026-05-07 15:19 | 26.45590 | -138.90802 | 39198 ft | 476 kts | 49° |
| 2026-05-07 15:20 | 26.49583 | -138.84929 | 39200 ft | 477 kts | 49° |
| 2026-05-07 15:20 | 26.53575 | -138.79050 | 39203 ft | 476 kts | 50° |
| 2026-05-07 15:21 | 26.57593 | -138.73125 | 39201 ft | 477 kts | 50° |
| 2026-05-07 15:21 | 26.61577 | -138.67241 | 39196 ft | 477 kts | 50° |
| 2026-05-07 15:22 | 26.65564 | -138.61346 | 39205 ft | 477 kts | 50° |
| 2026-05-07 15:22 | 26.69553 | -138.55440 | 39201 ft | 477 kts | 50° |
| 2026-05-07 15:23 | 26.73564 | -138.49493 | 39202 ft | 477 kts | 50° |
| 2026-05-07 15:23 | 26.77539 | -138.43591 | 39201 ft | 477 kts | 50° |
| 2026-05-07 15:24 | 26.81519 | -138.37677 | 39201 ft | 478 kts | 50° |
| 2026-05-07 15:24 | 26.85529 | -138.31709 | 39198 ft | 479 kts | 50° |
| 2026-05-07 15:25 | 26.89512 | -138.25772 | 39196 ft | 479 kts | 50° |
| 2026-05-07 15:25 | 26.93500 | -138.19820 | 39197 ft | 480 kts | 50° |
| 2026-05-07 15:26 | 26.97492 | -138.13855 | 39202 ft | 479 kts | 50° |
| 2026-05-07 15:26 | 27.01470 | -138.07901 | 39196 ft | 479 kts | 50° |
| 2026-05-07 15:27 | 27.05471 | -138.01907 | 39195 ft | 479 kts | 51° |
| 2026-05-07 15:27 | 27.09470 | -137.95908 | 39199 ft | 480 kts | 51° |
| 2026-05-07 15:28 | 27.13439 | -137.89943 | 39203 ft | 479 kts | 51° |
| 2026-05-07 15:28 | 27.17402 | -137.83981 | 39207 ft | 478 kts | 50° |
| 2026-05-07 15:29 | 27.21391 | -137.77972 | 39210 ft | 479 kts | 50° |
| 2026-05-07 15:29 | 27.25340 | -137.72014 | 39211 ft | 478 kts | 50° |
| 2026-05-07 15:30 | 27.29308 | -137.66022 | 39209 ft | 478 kts | 50° |
| 2026-05-07 15:30 | 27.33281 | -137.60011 | 39210 ft | 478 kts | 51° |
| 2026-05-07 15:31 | 27.37240 | -137.54015 | 39209 ft | 477 kts | 50° |
| 2026-05-07 15:31 | 27.41165 | -137.48062 | 39209 ft | 478 kts | 50° |
| 2026-05-07 15:32 | 27.45128 | -137.42042 | 39208 ft | 476 kts | 50° |
| 2026-05-07 15:32 | 27.49050 | -137.36078 | 39208 ft | 476 kts | 50° |
| 2026-05-07 15:33 | 27.52986 | -137.30084 | 39204 ft | 476 kts | 51° |
| 2026-05-07 15:33 | 27.56921 | -137.24083 | 39205 ft | 476 kts | 51° |
| 2026-05-07 15:34 | 27.60841 | -137.18095 | 39214 ft | 475 kts | 51° |
| 2026-05-07 15:34 | 27.64734 | -137.12143 | 39225 ft | 473 kts | 51° |
| 2026-05-07 15:35 | 27.68642 | -137.06158 | 39229 ft | 474 kts | 51° |
| 2026-05-07 15:35 | 27.72543 | -137.00177 | 39233 ft | 474 kts | 51° |
| 2026-05-07 15:36 | 27.76439 | -136.94194 | 39233 ft | 474 kts | 51° |
| 2026-05-07 15:36 | 27.80333 | -136.88207 | 39239 ft | 474 kts | 51° |
| 2026-05-07 15:37 | 27.84220 | -136.82220 | 39236 ft | 472 kts | 51° |
| 2026-05-07 15:37 | 27.88097 | -136.76244 | 39238 ft | 472 kts | 51° |
| 2026-05-07 15:38 | 27.91961 | -136.70277 | 39240 ft | 472 kts | 51° |
| 2026-05-07 15:38 | 27.95845 | -136.64272 | 39242 ft | 472 kts | 51° |
| 2026-05-07 15:39 | 27.99705 | -136.58295 | 39235 ft | 472 kts | 51° |
| 2026-05-07 15:39 | 28.03575 | -136.52296 | 39230 ft | 472 kts | 51° |
| 2026-05-07 15:40 | 28.07414 | -136.46335 | 39232 ft | 471 kts | 51° |
| 2026-05-07 15:40 | 28.11270 | -136.40340 | 39240 ft | 471 kts | 51° |
| 2026-05-07 15:41 | 28.15101 | -136.34375 | 39239 ft | 471 kts | 51° |
| 2026-05-07 15:41 | 28.18957 | -136.28363 | 39237 ft | 470 kts | 51° |
| 2026-05-07 15:42 | 28.22785 | -136.22386 | 39238 ft | 470 kts | 51° |
| 2026-05-07 15:42 | 28.26620 | -136.16389 | 39242 ft | 471 kts | 51° |
| 2026-05-07 15:43 | 28.30446 | -136.10400 | 39240 ft | 471 kts | 51° |
| 2026-05-07 15:43 | 28.34302 | -136.04355 | 39242 ft | 471 kts | 51° |
| 2026-05-07 15:44 | 28.38125 | -135.98352 | 39241 ft | 470 kts | 51° |
| 2026-05-07 15:44 | 28.41950 | -135.92339 | 39241 ft | 470 kts | 51° |
| 2026-05-07 15:45 | 28.45748 | -135.86357 | 39241 ft | 470 kts | 51° |
| 2026-05-07 15:45 | 28.49573 | -135.80327 | 39241 ft | 470 kts | 51° |
| 2026-05-07 15:46 | 28.55291 | -135.71295 | 39241 ft | 470 kts | 51° |
| 2026-05-07 15:47 | 28.59094 | -135.65277 | 39241 ft | 469 kts | 51° |
| 2026-05-07 15:47 | 28.62900 | -135.59247 | 39241 ft | 470 kts | 51° |
| 2026-05-07 15:48 | 28.66694 | -135.53226 | 39241 ft | 470 kts | 51° |
| 2026-05-07 15:48 | 28.70507 | -135.47166 | 39241 ft | 470 kts | 51° |
| 2026-05-07 15:49 | 28.74288 | -135.41148 | 39241 ft | 469 kts | 51° |
| 2026-05-07 15:49 | 28.78091 | -135.35089 | 39239 ft | 469 kts | 51° |
| 2026-05-07 15:50 | 28.81860 | -135.29073 | 39235 ft | 468 kts | 51° |
| 2026-05-07 15:50 | 28.85644 | -135.23024 | 39236 ft | 469 kts | 51° |
| 2026-05-07 15:51 | 28.89405 | -135.17004 | 39239 ft | 470 kts | 51° |
| 2026-05-07 15:51 | 28.93192 | -135.10934 | 39248 ft | 470 kts | 51° |
| 2026-05-07 15:52 | 28.96992 | -135.04834 | 39256 ft | 470 kts | 51° |
| 2026-05-07 15:52 | 29.00881 | -134.98885 | 39256 ft | 465 kts | 44° |
| 2026-05-07 15:53 | 29.05358 | -134.93623 | 39257 ft | 464 kts | 42° |
| 2026-05-07 15:53 | 29.09867 | -134.88368 | 39258 ft | 463 kts | 42° |
| 2026-05-07 15:54 | 29.14360 | -134.83107 | 39264 ft | 464 kts | 42° |
| 2026-05-07 15:54 | 29.18860 | -134.77818 | 39264 ft | 464 kts | 43° |
| 2026-05-07 15:55 | 29.23338 | -134.72543 | 39268 ft | 464 kts | 42° |
| 2026-05-07 15:55 | 29.27839 | -134.67230 | 39265 ft | 463 kts | 42° |
| 2026-05-07 15:56 | 29.32292 | -134.61968 | 39265 ft | 463 kts | 42° |
| 2026-05-07 15:56 | 29.36796 | -134.56635 | 39266 ft | 464 kts | 42° |
| 2026-05-07 15:57 | 29.41237 | -134.51369 | 39265 ft | 463 kts | 42° |
| 2026-05-07 15:57 | 29.45703 | -134.46066 | 39267 ft | 462 kts | 42° |
| 2026-05-07 15:58 | 29.50166 | -134.40761 | 39264 ft | 464 kts | 42° |
| 2026-05-07 15:58 | 29.54636 | -134.35439 | 39263 ft | 462 kts | 42° |
| 2026-05-07 15:59 | 29.59087 | -134.30130 | 39260 ft | 462 kts | 43° |
| 2026-05-07 15:59 | 29.63530 | -134.24826 | 39262 ft | 463 kts | 43° |
| 2026-05-07 16:00 | 29.67991 | -134.19493 | 39260 ft | 462 kts | 43° |
| 2026-05-07 16:00 | 29.72431 | -134.14178 | 39259 ft | 462 kts | 43° |
| 2026-05-07 16:01 | 29.76858 | -134.08872 | 39260 ft | 461 kts | 43° |
| 2026-05-07 16:01 | 29.81300 | -134.03540 | 39258 ft | 461 kts | 43° |
| 2026-05-07 16:02 | 29.85721 | -133.98225 | 39258 ft | 461 kts | 43° |
| 2026-05-07 16:02 | 29.90143 | -133.92903 | 39258 ft | 460 kts | 43° |
| 2026-05-07 16:03 | 29.94542 | -133.87602 | 39257 ft | 460 kts | 43° |
| 2026-05-07 16:03 | 29.98957 | -133.82272 | 39257 ft | 459 kts | 43° |
| 2026-05-07 16:04 | 30.03355 | -133.76956 | 39258 ft | 459 kts | 43° |
| 2026-05-07 16:04 | 30.07743 | -133.71646 | 39257 ft | 460 kts | 43° |
| 2026-05-07 16:05 | 30.12144 | -133.66312 | 39265 ft | 459 kts | 43° |
| 2026-05-07 16:05 | 30.16558 | -133.60956 | 39264 ft | 460 kts | 43° |
| 2026-05-07 16:06 | 30.20956 | -133.55611 | 39266 ft | 459 kts | 43° |
| 2026-05-07 16:06 | 30.25361 | -133.50249 | 39273 ft | 459 kts | 43° |
| 2026-05-07 16:07 | 30.29714 | -133.44945 | 39276 ft | 459 kts | 43° |
| 2026-05-07 16:07 | 30.34125 | -133.39561 | 39275 ft | 459 kts | 43° |
| 2026-05-07 16:08 | 30.38487 | -133.34232 | 39275 ft | 459 kts | 43° |
| 2026-05-07 16:08 | 30.42893 | -133.28839 | 39279 ft | 459 kts | 43° |
| 2026-05-07 16:09 | 30.47263 | -133.23483 | 39281 ft | 458 kts | 43° |
| 2026-05-07 16:09 | 30.51631 | -133.18123 | 39281 ft | 459 kts | 43° |
| 2026-05-07 16:10 | 30.55992 | -133.12762 | 39281 ft | 458 kts | 43° |
| 2026-05-07 16:10 | 30.60361 | -133.07387 | 39281 ft | 458 kts | 43° |
| 2026-05-07 16:11 | 30.64735 | -133.01997 | 39280 ft | 459 kts | 43° |
| 2026-05-07 16:11 | 30.69086 | -132.96626 | 39284 ft | 458 kts | 43° |
| 2026-05-07 16:12 | 30.73422 | -132.91267 | 39279 ft | 458 kts | 43° |
| 2026-05-07 16:12 | 30.77803 | -132.85846 | 39279 ft | 458 kts | 43° |
| 2026-05-07 16:13 | 30.82150 | -132.80458 | 39283 ft | 458 kts | 43° |
| 2026-05-07 16:13 | 30.86488 | -132.75073 | 39284 ft | 457 kts | 43° |
| 2026-05-07 16:14 | 30.90832 | -132.69675 | 39279 ft | 456 kts | 43° |
| 2026-05-07 16:14 | 30.95136 | -132.64317 | 39282 ft | 457 kts | 43° |
| 2026-05-07 16:15 | 30.99476 | -132.58908 | 39280 ft | 457 kts | 43° |
| 2026-05-07 16:15 | 31.03807 | -132.53502 | 39280 ft | 457 kts | 43° |
| 2026-05-07 16:16 | 31.08115 | -132.48117 | 39281 ft | 457 kts | 43° |
| 2026-05-07 16:16 | 31.12460 | -132.42677 | 39285 ft | 457 kts | 43° |
| 2026-05-07 16:17 | 31.16778 | -132.37265 | 39289 ft | 457 kts | 43° |
| 2026-05-07 16:17 | 31.21076 | -132.31868 | 39281 ft | 456 kts | 44° |
| 2026-05-07 16:18 | 31.25385 | -132.26451 | 39285 ft | 456 kts | 44° |
| 2026-05-07 16:18 | 31.29707 | -132.21008 | 39281 ft | 455 kts | 43° |
| 2026-05-07 16:19 | 31.33999 | -132.15598 | 39285 ft | 455 kts | 43° |
| 2026-05-07 16:19 | 31.38306 | -132.10161 | 39281 ft | 457 kts | 44° |
| 2026-05-07 16:20 | 31.42614 | -132.04713 | 39279 ft | 456 kts | 44° |
| 2026-05-07 16:20 | 31.46924 | -131.99255 | 39281 ft | 456 kts | 44° |
| 2026-05-07 16:21 | 31.51244 | -131.93776 | 39277 ft | 457 kts | 44° |
| 2026-05-07 16:21 | 31.55523 | -131.88342 | 39270 ft | 456 kts | 43° |
| 2026-05-07 16:22 | 31.59834 | -131.82858 | 39259 ft | 457 kts | 44° |
| 2026-05-07 16:22 | 31.64111 | -131.77411 | 39264 ft | 457 kts | 44° |
| 2026-05-07 16:23 | 31.68438 | -131.71892 | 39279 ft | 459 kts | 44° |
| 2026-05-07 16:23 | 31.72744 | -131.66389 | 39283 ft | 458 kts | 43° |
| 2026-05-07 16:24 | 31.77045 | -131.60887 | 39292 ft | 459 kts | 44° |
| 2026-05-07 16:24 | 31.81354 | -131.55366 | 39297 ft | 460 kts | 43° |
| 2026-05-07 16:25 | 31.85663 | -131.49837 | 39293 ft | 459 kts | 44° |
| 2026-05-07 16:25 | 31.89960 | -131.44315 | 39292 ft | 458 kts | 44° |
| 2026-05-07 16:26 | 31.94280 | -131.38756 | 39285 ft | 458 kts | 43° |
| 2026-05-07 16:26 | 31.98563 | -131.33234 | 39279 ft | 457 kts | 44° |
| 2026-05-07 16:27 | 32.02828 | -131.27728 | 39278 ft | 456 kts | 44° |
| 2026-05-07 16:27 | 32.07084 | -131.22226 | 39275 ft | 456 kts | 44° |
| 2026-05-07 16:28 | 32.11353 | -131.16699 | 39289 ft | 457 kts | 44° |
| 2026-05-07 16:28 | 32.15642 | -131.11137 | 39286 ft | 458 kts | 44° |
| 2026-05-07 16:29 | 32.19902 | -131.05605 | 39282 ft | 457 kts | 44° |
| 2026-05-07 16:29 | 32.24189 | -131.00029 | 39283 ft | 458 kts | 44° |
| 2026-05-07 16:30 | 32.28445 | -130.94485 | 39282 ft | 457 kts | 44° |
| 2026-05-07 16:30 | 32.32714 | -130.88916 | 39282 ft | 456 kts | 44° |
| 2026-05-07 16:31 | 32.36955 | -130.83375 | 39283 ft | 456 kts | 44° |
| 2026-05-07 16:31 | 32.41206 | -130.77814 | 39283 ft | 456 kts | 44° |
| 2026-05-07 16:32 | 32.45454 | -130.72247 | 39282 ft | 457 kts | 44° |
| 2026-05-07 16:32 | 32.49689 | -130.66689 | 39283 ft | 457 kts | 44° |
| 2026-05-07 16:33 | 32.53947 | -130.61090 | 39281 ft | 457 kts | 44° |
| 2026-05-07 16:33 | 32.58202 | -130.55489 | 39280 ft | 457 kts | 44° |
| 2026-05-07 16:34 | 32.62430 | -130.49915 | 39281 ft | 456 kts | 44° |
| 2026-05-07 16:34 | 32.66674 | -130.44310 | 39283 ft | 456 kts | 44° |
| 2026-05-07 16:35 | 32.70909 | -130.38709 | 39281 ft | 455 kts | 44° |
| 2026-05-07 16:35 | 32.75127 | -130.33122 | 39279 ft | 456 kts | 45° |
| 2026-05-07 16:36 | 32.79322 | -130.27557 | 39278 ft | 455 kts | 44° |
| 2026-05-07 16:36 | 32.83543 | -130.21948 | 39278 ft | 456 kts | 45° |
| 2026-05-07 16:37 | 32.87786 | -130.16303 | 39279 ft | 456 kts | 45° |
| 2026-05-07 16:37 | 32.91987 | -130.10704 | 39277 ft | 455 kts | 45° |
| 2026-05-07 16:38 | 32.96188 | -130.05096 | 39278 ft | 456 kts | 45° |
| 2026-05-07 16:38 | 33.00338 | -129.99434 | 39279 ft | 455 kts | 48° |
| 2026-05-07 16:39 | 33.04241 | -129.93481 | 39274 ft | 456 kts | 48° |
| 2026-05-07 16:39 | 33.08140 | -129.87495 | 39271 ft | 458 kts | 48° |
| 2026-05-07 16:40 | 33.12009 | -129.81543 | 39281 ft | 458 kts | 48° |
| 2026-05-07 16:40 | 33.15893 | -129.75555 | 39278 ft | 458 kts | 49° |
| 2026-05-07 16:41 | 33.19789 | -129.69539 | 39272 ft | 458 kts | 48° |
| 2026-05-07 16:41 | 33.23665 | -129.63544 | 39269 ft | 458 kts | 48° |
| 2026-05-07 16:42 | 33.27553 | -129.57521 | 39276 ft | 458 kts | 48° |
| 2026-05-07 16:42 | 33.31431 | -129.51502 | 39272 ft | 458 kts | 48° |
| 2026-05-07 16:43 | 33.35310 | -129.45473 | 39271 ft | 458 kts | 48° |
| 2026-05-07 16:43 | 33.39168 | -129.39467 | 39267 ft | 459 kts | 49° |
| 2026-05-07 16:44 | 33.43052 | -129.33409 | 39268 ft | 459 kts | 49° |
| 2026-05-07 16:44 | 33.46941 | -129.27333 | 39260 ft | 459 kts | 49° |
| 2026-05-07 16:45 | 33.50800 | -129.21295 | 39262 ft | 460 kts | 49° |
| 2026-05-07 16:45 | 33.54658 | -129.15248 | 39260 ft | 459 kts | 49° |
| 2026-05-07 16:46 | 33.58534 | -129.09164 | 39379 ft | 462 kts | 49° |
| 2026-05-07 16:46 | 33.60483 | -129.06099 | 39765 ft | 461 kts | 49° |
| 2026-05-07 16:46 | 33.62415 | -129.03059 | 40154 ft | 458 kts | 49° |
| 2026-05-07 16:46 | 33.64355 | -129.00005 | 40415 ft | 458 kts | 49° |
| 2026-05-07 16:47 | 33.66276 | -128.96979 | 40602 ft | 459 kts | 49° |
| 2026-05-07 16:47 | 33.68210 | -128.93927 | 40784 ft | 460 kts | 49° |
| 2026-05-07 16:47 | 33.70133 | -128.90894 | 40945 ft | 461 kts | 49° |
| 2026-05-07 16:47 | 33.72089 | -128.87804 | 41137 ft | 461 kts | 49° |
| 2026-05-07 16:48 | 33.74009 | -128.84767 | 41267 ft | 462 kts | 49° |
| 2026-05-07 16:48 | 33.77895 | -128.78613 | 41261 ft | 460 kts | 49° |
| 2026-05-07 16:49 | 33.81731 | -128.72531 | 41258 ft | 460 kts | 49° |
| 2026-05-07 16:49 | 33.85606 | -128.66376 | 41264 ft | 461 kts | 49° |
| 2026-05-07 16:50 | 33.89449 | -128.60261 | 41267 ft | 461 kts | 49° |
| 2026-05-07 16:50 | 33.93313 | -128.54102 | 41258 ft | 460 kts | 49° |
| 2026-05-07 16:51 | 33.97170 | -128.47943 | 41262 ft | 460 kts | 49° |
| 2026-05-07 16:51 | 34.00988 | -128.41836 | 41259 ft | 459 kts | 49° |
| 2026-05-07 16:52 | 34.04817 | -128.35704 | 41260 ft | 460 kts | 49° |
| 2026-05-07 16:52 | 34.08654 | -128.29547 | 41259 ft | 460 kts | 50° |
| 2026-05-07 16:53 | 34.12504 | -128.23358 | 41268 ft | 460 kts | 50° |
| 2026-05-07 16:53 | 34.16329 | -128.17198 | 41266 ft | 460 kts | 50° |
| 2026-05-07 16:54 | 34.20136 | -128.11058 | 41264 ft | 460 kts | 50° |
| 2026-05-07 16:54 | 34.23976 | -128.04852 | 41261 ft | 461 kts | 50° |
| 2026-05-07 16:55 | 34.27819 | -127.98634 | 41256 ft | 460 kts | 50° |
| 2026-05-07 16:55 | 34.31625 | -127.92463 | 41256 ft | 460 kts | 50° |
| 2026-05-07 16:56 | 34.35442 | -127.86264 | 41250 ft | 461 kts | 50° |
| 2026-05-07 16:56 | 34.41178 | -127.76927 | 41240 ft | 461 kts | 50° |
| 2026-05-07 16:57 | 34.44989 | -127.70711 | 41240 ft | 462 kts | 50° |
| 2026-05-07 16:57 | 34.48807 | -127.64472 | 41241 ft | 462 kts | 50° |
| 2026-05-07 16:58 | 34.52616 | -127.58236 | 41240 ft | 462 kts | 50° |
| 2026-05-07 16:58 | 34.56412 | -127.52012 | 41240 ft | 462 kts | 50° |
| 2026-05-07 16:59 | 34.60234 | -127.45734 | 41242 ft | 462 kts | 50° |
| 2026-05-07 16:59 | 34.64057 | -127.39443 | 41243 ft | 463 kts | 50° |
| 2026-05-07 17:00 | 34.67860 | -127.33173 | 41239 ft | 463 kts | 50° |
| 2026-05-07 17:00 | 34.71666 | -127.26889 | 41239 ft | 463 kts | 50° |
| 2026-05-07 17:01 | 34.75460 | -127.20612 | 41238 ft | 463 kts | 50° |
| 2026-05-07 17:01 | 34.79265 | -127.14307 | 41237 ft | 463 kts | 50° |
| 2026-05-07 17:02 | 34.83063 | -127.08002 | 41239 ft | 463 kts | 50° |
| 2026-05-07 17:02 | 34.86848 | -127.01707 | 41238 ft | 463 kts | 51° |
| 2026-05-07 17:03 | 34.90670 | -126.95341 | 41233 ft | 465 kts | 50° |
| 2026-05-07 17:03 | 34.94469 | -126.89000 | 41236 ft | 466 kts | 50° |
| 2026-05-07 17:04 | 34.98286 | -126.82616 | 41233 ft | 466 kts | 51° |
| 2026-05-07 17:04 | 35.02069 | -126.76279 | 41236 ft | 465 kts | 50° |
| 2026-05-07 17:05 | 35.05893 | -126.69862 | 41240 ft | 467 kts | 50° |
| 2026-05-07 17:05 | 35.09677 | -126.63502 | 41234 ft | 467 kts | 51° |
| 2026-05-07 17:06 | 35.13496 | -126.57070 | 41241 ft | 468 kts | 51° |
| 2026-05-07 17:06 | 35.17313 | -126.50628 | 41239 ft | 469 kts | 51° |
| 2026-05-07 17:07 | 35.21138 | -126.44163 | 41242 ft | 470 kts | 51° |
| 2026-05-07 17:07 | 35.24961 | -126.37688 | 41242 ft | 470 kts | 51° |
| 2026-05-07 17:08 | 35.28758 | -126.31246 | 41234 ft | 470 kts | 51° |
| 2026-05-07 17:08 | 35.32583 | -126.24745 | 41238 ft | 470 kts | 51° |
| 2026-05-07 17:09 | 35.36383 | -126.18273 | 41237 ft | 471 kts | 51° |
| 2026-05-07 17:09 | 35.40214 | -126.11737 | 41241 ft | 471 kts | 51° |
| 2026-05-07 17:10 | 35.44019 | -126.05233 | 41235 ft | 472 kts | 51° |
| 2026-05-07 17:10 | 35.47824 | -125.98717 | 41232 ft | 472 kts | 52° |
| 2026-05-07 17:11 | 35.51641 | -125.92169 | 41225 ft | 474 kts | 51° |
| 2026-05-07 17:11 | 35.55477 | -125.85574 | 41212 ft | 473 kts | 51° |
| 2026-05-07 17:12 | 35.59313 | -125.78969 | 41213 ft | 475 kts | 52° |
| 2026-05-07 17:12 | 35.63137 | -125.72371 | 41208 ft | 475 kts | 51° |
| 2026-05-07 17:13 | 35.66950 | -125.65778 | 41207 ft | 476 kts | 52° |
| 2026-05-07 17:13 | 35.70810 | -125.59094 | 41204 ft | 479 kts | 52° |
| 2026-05-07 17:14 | 35.74635 | -125.52455 | 41207 ft | 480 kts | 52° |
| 2026-05-07 17:14 | 35.76546 | -125.49133 | 40848 ft | 474 kts | 52° |
| 2026-05-07 17:14 | 35.78450 | -125.45821 | 39765 ft | 477 kts | 52° |
| 2026-05-07 17:15 | 35.80357 | -125.42503 | 38724 ft | 480 kts | 52° |
| 2026-05-07 17:15 | 35.82269 | -125.39170 | 37821 ft | 480 kts | 52° |
| 2026-05-07 17:15 | 35.84205 | -125.35792 | 36926 ft | 480 kts | 53° |
| 2026-05-07 17:15 | 35.86101 | -125.32481 | 36323 ft | 473 kts | 53° |
| 2026-05-07 17:16 | 35.87990 | -125.29178 | 35910 ft | 464 kts | 53° |
| 2026-05-07 17:16 | 35.89837 | -125.25945 | 35492 ft | 464 kts | 53° |
| 2026-05-07 17:16 | 35.91727 | -125.22639 | 35002 ft | 483 kts | 54° |
| 2026-05-07 17:16 | 35.93651 | -125.19269 | 34435 ft | 486 kts | 54° |
| 2026-05-07 17:17 | 35.95599 | -125.15849 | 33858 ft | 481 kts | 54° |
| 2026-05-07 17:17 | 35.97497 | -125.12515 | 33318 ft | 475 kts | 54° |
| 2026-05-07 17:17 | 35.99365 | -125.09229 | 32777 ft | 470 kts | 54° |
| 2026-05-07 17:17 | 36.01241 | -125.05930 | 32214 ft | 465 kts | 54° |
| 2026-05-07 17:18 | 36.03084 | -125.02681 | 31653 ft | 460 kts | 54° |
| 2026-05-07 17:18 | 36.04905 | -124.99472 | 31105 ft | 455 kts | 54° |
| 2026-05-07 17:18 | 36.06703 | -124.96298 | 30569 ft | 451 kts | 54° |
| 2026-05-07 17:18 | 36.08475 | -124.93169 | 30041 ft | 446 kts | 54° |
| 2026-05-07 17:19 | 36.10247 | -124.90035 | 29507 ft | 442 kts | 54° |
| 2026-05-07 17:19 | 36.11978 | -124.86971 | 28985 ft | 438 kts | 54° |
| 2026-05-07 17:19 | 36.13725 | -124.83878 | 28465 ft | 433 kts | 54° |
| 2026-05-07 17:19 | 36.15438 | -124.80841 | 27957 ft | 429 kts | 54° |
| 2026-05-07 17:20 | 36.17120 | -124.77856 | 27448 ft | 425 kts | 53° |
| 2026-05-07 17:20 | 36.18805 | -124.74882 | 26957 ft | 420 kts | 52° |
| 2026-05-07 17:20 | 36.20581 | -124.72076 | 26845 ft | 409 kts | 50° |
| 2026-05-07 17:20 | 36.22367 | -124.69308 | 26801 ft | 417 kts | 50° |
| 2026-05-07 17:21 | 36.24165 | -124.66511 | 26689 ft | 417 kts | 50° |
| 2026-05-07 17:21 | 36.25978 | -124.63677 | 26549 ft | 416 kts | 50° |
| 2026-05-07 17:21 | 36.27744 | -124.60909 | 26409 ft | 414 kts | 50° |
| 2026-05-07 17:21 | 36.29527 | -124.58108 | 26266 ft | 413 kts | 50° |
| 2026-05-07 17:22 | 36.31319 | -124.55289 | 26124 ft | 412 kts | 50° |
| 2026-05-07 17:22 | 36.33089 | -124.52498 | 25983 ft | 412 kts | 50° |
| 2026-05-07 17:22 | 36.34839 | -124.49737 | 25847 ft | 411 kts | 50° |
| 2026-05-07 17:22 | 36.36594 | -124.46963 | 25708 ft | 410 kts | 50° |
| 2026-05-07 17:23 | 36.38349 | -124.44188 | 25570 ft | 408 kts | 50° |
| 2026-05-07 17:23 | 36.40089 | -124.41431 | 25429 ft | 407 kts | 50° |
| 2026-05-07 17:23 | 36.41833 | -124.38669 | 25287 ft | 406 kts | 50° |
| 2026-05-07 17:23 | 36.43574 | -124.35907 | 25149 ft | 405 kts | 50° |
| 2026-05-07 17:24 | 36.45300 | -124.33167 | 25008 ft | 404 kts | 51° |
| 2026-05-07 17:24 | 36.47036 | -124.30409 | 24868 ft | 403 kts | 51° |
| 2026-05-07 17:24 | 36.48739 | -124.27700 | 24729 ft | 402 kts | 51° |
| 2026-05-07 17:24 | 36.50461 | -124.24959 | 24591 ft | 401 kts | 51° |
| 2026-05-07 17:25 | 36.52169 | -124.22237 | 24458 ft | 400 kts | 51° |
| 2026-05-07 17:25 | 36.53889 | -124.19496 | 24325 ft | 399 kts | 50° |
| 2026-05-07 17:25 | 36.55576 | -124.16804 | 24189 ft | 399 kts | 50° |
| 2026-05-07 17:25 | 36.57278 | -124.14085 | 24053 ft | 399 kts | 51° |
| 2026-05-07 17:26 | 36.58992 | -124.11346 | 23914 ft | 397 kts | 50° |
| 2026-05-07 17:26 | 36.60673 | -124.08659 | 23778 ft | 396 kts | 51° |
| 2026-05-07 17:26 | 36.62344 | -124.05984 | 23644 ft | 395 kts | 51° |
| 2026-05-07 17:26 | 36.64032 | -124.03279 | 23505 ft | 394 kts | 50° |
| 2026-05-07 17:27 | 36.65713 | -124.00584 | 23370 ft | 393 kts | 50° |
| 2026-05-07 17:27 | 36.67384 | -123.97902 | 23240 ft | 392 kts | 50° |
| 2026-05-07 17:27 | 36.69055 | -123.95219 | 23106 ft | 390 kts | 50° |
| 2026-05-07 17:27 | 36.70712 | -123.92555 | 22968 ft | 389 kts | 50° |
| 2026-05-07 17:28 | 36.72367 | -123.89895 | 22839 ft | 389 kts | 50° |
| 2026-05-07 17:28 | 36.74002 | -123.87263 | 22707 ft | 389 kts | 51° |
| 2026-05-07 17:28 | 36.75651 | -123.84607 | 22573 ft | 388 kts | 51° |
| 2026-05-07 17:28 | 36.77309 | -123.81934 | 22438 ft | 387 kts | 51° |
| 2026-05-07 17:29 | 36.78947 | -123.79291 | 22309 ft | 387 kts | 51° |
| 2026-05-07 17:29 | 36.80602 | -123.76619 | 22178 ft | 387 kts | 51° |
| 2026-05-07 17:29 | 36.82225 | -123.73996 | 22045 ft | 386 kts | 51° |
| 2026-05-07 17:29 | 36.83883 | -123.71313 | 21910 ft | 386 kts | 51° |
| 2026-05-07 17:30 | 36.85506 | -123.68687 | 21778 ft | 385 kts | 51° |
| 2026-05-07 17:30 | 36.87123 | -123.66068 | 21645 ft | 384 kts | 51° |
| 2026-05-07 17:30 | 36.88766 | -123.63404 | 21514 ft | 383 kts | 51° |
| 2026-05-07 17:30 | 36.90378 | -123.60789 | 21383 ft | 382 kts | 51° |
| 2026-05-07 17:31 | 36.91987 | -123.58177 | 21251 ft | 382 kts | 51° |
| 2026-05-07 17:31 | 36.93618 | -123.55526 | 21088 ft | 382 kts | 51° |
| 2026-05-07 17:31 | 36.95218 | -123.52923 | 20628 ft | 383 kts | 51° |
| 2026-05-07 17:31 | 36.96852 | -123.50260 | 20121 ft | 380 kts | 51° |
| 2026-05-07 17:32 | 36.98431 | -123.47686 | 19664 ft | 377 kts | 51° |
| 2026-05-07 17:32 | 37.00028 | -123.45081 | 19219 ft | 373 kts | 51° |
| 2026-05-07 17:32 | 37.01594 | -123.42525 | 18788 ft | 369 kts | 51° |
| 2026-05-07 17:32 | 37.02617 | -123.40852 | 18508 ft | 367 kts | 51° |
| 2026-05-07 17:33 | 37.04667 | -123.37502 | 17937 ft | 362 kts | 51° |
| 2026-05-07 17:33 | 37.06195 | -123.35001 | 17433 ft | 361 kts | 52° |
| 2026-05-07 17:33 | 37.07724 | -123.32498 | 16964 ft | 359 kts | 52° |
| 2026-05-07 17:33 | 37.09220 | -123.30045 | 16534 ft | 356 kts | 52° |
| 2026-05-07 17:34 | 37.10727 | -123.27574 | 16117 ft | 353 kts | 52° |
| 2026-05-07 17:34 | 37.12207 | -123.25145 | 15710 ft | 349 kts | 52° |
| 2026-05-07 17:34 | 37.13659 | -123.22760 | 15311 ft | 346 kts | 52° |
| 2026-05-07 17:34 | 37.15110 | -123.20375 | 14910 ft | 344 kts | 53° |
| 2026-05-07 17:35 | 37.16561 | -123.17989 | 14488 ft | 339 kts | 53° |
| 2026-05-07 17:35 | 37.17957 | -123.15691 | 14115 ft | 331 kts | 53° |
| 2026-05-07 17:35 | 37.19230 | -123.13304 | 13745 ft | 327 kts | 66° |
| 2026-05-07 17:35 | 37.20018 | -123.10675 | 13365 ft | 324 kts | 73° |
| 2026-05-07 17:36 | 37.20674 | -123.07967 | 12982 ft | 320 kts | 74° |
| 2026-05-07 17:36 | 37.21294 | -123.05326 | 12627 ft | 317 kts | 74° |
| 2026-05-07 17:36 | 37.21910 | -123.02704 | 12262 ft | 314 kts | 74° |
| 2026-05-07 17:36 | 37.22527 | -123.00085 | 11888 ft | 311 kts | 74° |
| 2026-05-07 17:37 | 37.23133 | -122.97519 | 11524 ft | 308 kts | 74° |
| 2026-05-07 17:37 | 37.23744 | -122.94925 | 11171 ft | 305 kts | 74° |
| 2026-05-07 17:37 | 37.24338 | -122.92404 | 10838 ft | 303 kts | 74° |
| 2026-05-07 17:37 | 37.24933 | -122.89876 | 10473 ft | 302 kts | 74° |
| 2026-05-07 17:38 | 37.25529 | -122.87339 | 10103 ft | 300 kts | 74° |
| 2026-05-07 17:38 | 37.26113 | -122.84854 | 9836 ft | 294 kts | 74° |
| 2026-05-07 17:38 | 37.26673 | -122.82465 | 9768 ft | 284 kts | 74° |
| 2026-05-07 17:38 | 37.27229 | -122.80087 | 9714 ft | 284 kts | 74° |
| 2026-05-07 17:39 | 37.27786 | -122.77702 | 9662 ft | 285 kts | 74° |
| 2026-05-07 17:39 | 37.28343 | -122.75319 | 9575 ft | 285 kts | 74° |
| 2026-05-07 17:39 | 37.28901 | -122.72929 | 9501 ft | 284 kts | 74° |
| 2026-05-07 17:39 | 37.29454 | -122.70557 | 9432 ft | 285 kts | 74° |
| 2026-05-07 17:40 | 37.30005 | -122.68190 | 9348 ft | 284 kts | 74° |
| 2026-05-07 17:40 | 37.30559 | -122.65807 | 9254 ft | 284 kts | 74° |
| 2026-05-07 17:40 | 37.31117 | -122.63409 | 9194 ft | 284 kts | 74° |
| 2026-05-07 17:40 | 37.31662 | -122.61063 | 9111 ft | 285 kts | 74° |
| 2026-05-07 17:41 | 37.32217 | -122.58668 | 8994 ft | 283 kts | 74° |
| 2026-05-07 17:41 | 37.32763 | -122.56310 | 8901 ft | 283 kts | 74° |
| 2026-05-07 17:41 | 37.33312 | -122.53938 | 8832 ft | 283 kts | 74° |
| 2026-05-07 17:41 | 37.33861 | -122.51566 | 8794 ft | 283 kts | 74° |
| 2026-05-07 17:42 | 37.34409 | -122.49192 | 8744 ft | 282 kts | 74° |
| 2026-05-07 17:42 | 37.34958 | -122.46813 | 8625 ft | 280 kts | 73° |
| 2026-05-07 17:42 | 37.35498 | -122.44472 | 8551 ft | 279 kts | 74° |
| 2026-05-07 17:42 | 37.36034 | -122.42142 | 8456 ft | 278 kts | 73° |
| 2026-05-07 17:43 | 37.36574 | -122.39796 | 8367 ft | 279 kts | 73° |
| 2026-05-07 17:43 | 37.37113 | -122.37450 | 8294 ft | 278 kts | 73° |
| 2026-05-07 17:43 | 37.37645 | -122.35132 | 8217 ft | 277 kts | 73° |
| 2026-05-07 17:43 | 37.38176 | -122.32817 | 8129 ft | 276 kts | 74° |
| 2026-05-07 17:44 | 37.38708 | -122.30497 | 8046 ft | 276 kts | 74° |
| 2026-05-07 17:44 | 37.39236 | -122.28188 | 7973 ft | 270 kts | 74° |
| 2026-05-07 17:44 | 37.39637 | -122.25907 | 7824 ft | 267 kts | 87° |
| 2026-05-07 17:44 | 37.39412 | -122.23617 | 7483 ft | 268 kts | 109° |
| 2026-05-07 17:45 | 37.38657 | -122.21453 | 7134 ft | 269 kts | 116° |
| 2026-05-07 17:45 | 37.37835 | -122.19344 | 6789 ft | 270 kts | 117° |
| 2026-05-07 17:45 | 37.37001 | -122.17231 | 6439 ft | 272 kts | 117° |
| 2026-05-07 17:45 | 37.36168 | -122.15125 | 6075 ft | 270 kts | 117° |
| 2026-05-07 17:46 | 37.35331 | -122.13020 | 5712 ft | 266 kts | 117° |
| 2026-05-07 17:46 | 37.34518 | -122.10981 | 5326 ft | 264 kts | 117° |
| 2026-05-07 17:46 | 37.33805 | -122.08851 | 4938 ft | 261 kts | 101° |
| 2026-05-07 17:46 | 37.33736 | -122.06635 | 4625 ft | 255 kts | 79° |
| 2026-05-07 17:47 | 37.34356 | -122.04594 | 4363 ft | 248 kts | 55° |
| 2026-05-07 17:47 | 37.35557 | -122.03070 | 4136 ft | 243 kts | 31° |
| 2026-05-07 17:47 | 37.37048 | -122.02138 | 3937 ft | 240 kts | 23° |
| 2026-05-07 17:47 | 37.38580 | -122.01301 | 3741 ft | 238 kts | 21° |
| 2026-05-07 17:48 | 37.40190 | -122.00866 | 3530 ft | 237 kts | 358° |
| 2026-05-07 17:48 | 37.41781 | -122.01302 | 3314 ft | 236 kts | 334° |
| 2026-05-07 17:48 | 37.43147 | -122.02422 | 3112 ft | 234 kts | 323° |
| 2026-05-07 17:48 | 37.44441 | -122.03650 | 2973 ft | 230 kts | 323° |
| 2026-05-07 17:49 | 37.45721 | -122.04868 | 2959 ft | 233 kts | 322° |
| 2026-05-07 17:49 | 37.47027 | -122.06108 | 2956 ft | 233 kts | 322° |
| 2026-05-07 17:49 | 37.48307 | -122.07362 | 2954 ft | 234 kts | 317° |
| 2026-05-07 17:49 | 37.49428 | -122.08843 | 2955 ft | 234 kts | 309° |
| 2026-05-07 17:50 | 37.50378 | -122.10461 | 2953 ft | 224 kts | 304° |
| 2026-05-07 17:50 | 37.51199 | -122.12054 | 2954 ft | 213 kts | 302° |
| 2026-05-07 17:50 | 37.51944 | -122.13637 | 2957 ft | 208 kts | 299° |
| 2026-05-07 17:50 | 37.52644 | -122.15228 | 2962 ft | 204 kts | 298° |
| 2026-05-07 17:51 | 37.53299 | -122.16750 | 2954 ft | 191 kts | 298° |
| 2026-05-07 17:51 | 37.53925 | -122.18211 | 2956 ft | 188 kts | 298° |
| 2026-05-07 17:51 | 37.54543 | -122.19661 | 2849 ft | 193 kts | 298° |
| 2026-05-07 17:51 | 37.55180 | -122.21162 | 2607 ft | 191 kts | 298° |
| 2026-05-07 17:52 | 37.55797 | -122.22616 | 2350 ft | 187 kts | 298° |
| 2026-05-07 17:52 | 37.56408 | -122.24053 | 2106 ft | 183 kts | 298° |
| 2026-05-07 17:52 | 37.57007 | -122.25465 | 1866 ft | 180 kts | 298° |
| 2026-05-07 17:52 | 37.57590 | -122.26839 | 1632 ft | 177 kts | 298° |
| 2026-05-07 17:53 | 37.58143 | -122.28141 | 1403 ft | 162 kts | 298° |
| 2026-05-07 17:53 | 37.58663 | -122.29368 | 1195 ft | 153 kts | 298° |
| 2026-05-07 17:53 | 37.59153 | -122.30520 | 980 ft | 148 kts | 298° |
| 2026-05-07 17:53 | 37.59636 | -122.31649 | 763 ft | 143 kts | 298° |
| 2026-05-07 17:54 | 37.60088 | -122.32737 | 585 ft | 139 kts | 298° |
| 2026-05-07 17:54 | 37.60557 | -122.33818 | 400 ft | 139 kts | 298° |
| 2026-05-07 17:54 | 37.61007 | -122.34890 | 227 ft | 140 kts | 298° |
| 2026-05-07 17:54 | 37.61463 | -122.35980 | 44 ft | 140 kts | 298° |
| 2026-05-07 17:55 | 37.61886 | -122.36980 | 19 ft | 112 kts | 297° |
| 2026-05-07 17:55 | 37.62175 | -122.37685 | 32 ft | 68 kts | 297° |
| 2026-05-07 17:55 | 37.62328 | -122.38044 | 35 ft | 27 kts | 297° |
| 2026-05-07 17:55 | 37.62421 | -122.38268 | 33 ft | 30 kts | 297° |
| 2026-05-07 17:56 | 37.62499 | -122.38517 | 32 ft | 26 kts | 278° |
| 2026-05-07 17:56 | 37.62500 | -122.38692 | 32 ft | 15 kts | 268° |
| 2026-05-07 17:56 | 37.62485 | -122.38817 | 32 ft | 15 kts | 247° |
| 2026-05-07 17:56 | 37.62418 | -122.38893 | 33 ft | 12 kts | 210° |
| 2026-05-07 17:57 | 37.62347 | -122.38971 | 35 ft | 14 kts | 239° |
| 2026-05-07 17:57 | 37.62323 | -122.39040 | 35 ft | 12 kts | 248° |
| 2026-05-07 17:57 | 37.62258 | -122.39177 | 36 ft | 13 kts | 219° |
| 2026-05-07 17:57 | 37.62174 | -122.39243 | 37 ft | 15 kts | 210° |
| 2026-05-07 17:58 | 37.62089 | -122.39281 | 38 ft | 12 kts | 167° |
| 2026-05-07 17:58 | 37.62030 | -122.39187 | 38 ft | 15 kts | 117° |
| 2026-05-07 17:58 | 37.61991 | -122.39119 | 38 ft | 8 kts | 162° |
| 2026-05-07 17:58 | 37.61929 | -122.39136 | 38 ft | 8 kts | 200° |
| 2026-05-07 17:59 | 37.61886 | -122.39162 | 38 ft | 4 kts | 207° |
| 2026-05-07 17:59 | 37.61870 | -122.39172 | 38 ft | 2 kts | 207° |
| 2026-05-07 17:59 | 37.61861 | -122.39178 | 38 ft | 1 kts | 207° |
| 2026-05-07 17:59 | 37.61859 | -122.39179 | 38 ft | 0 kts | 207° |